Time;durP1;ratioP1;P1;durP2;ratioP2;P2;SDS_P1;SDS_P2;PMS_P1;PMS_P2;Temp;Humidity;BMP_temperature;BMP_pressure;BME280_temperature;BME280_humidity;BME280_pressure;Samples;Min_cycle;Max_cycle;Signal;HPM_P1;HPM_P2
2022/08/23 00:01:48;;;;;;;;;;;;;;;;;;4807686;29;19925;-45
2022/08/23 00:04:20;;;;;;;;;;;;;;;;;;4807733;29;19928;-46
2022/08/23 00:06:48;;;;;;;;;;;;;;;;;;4807497;29;20361;-45
2022/08/23 00:09:17;;;;;;;;;;;;;;;;;;4807746;29;20350;-49
2022/08/23 00:11:49;;;;;;;;;;;;;;;;;;4807348;29;19972;-45
2022/08/23 00:14:18;;;;;;;;;;;;;;;;;;4807522;29;19978;-46
2022/08/23 00:16:48;;;;;;;;;;;;;;;;;;4807535;29;20385;-44
2022/08/23 00:19:16;;;;;;;;;;;;;;;;;;4807459;29;20302;-45
2022/08/23 00:21:45;;;;;;;;;;;;;;;;;;4807560;29;19982;-46
2022/08/23 00:24:12;;;;;;;;;;;;;;;;;;4807125;29;20004;-43
2022/08/23 00:26:50;;;;;;;;;;;;;;;;;;4807286;29;19925;-46
2022/08/23 00:29:18;;;;;;;;;;;;;;;;;;4807231;29;20023;-48
2022/08/23 00:31:46;;;;;;;;;;;;;;;;;;4807225;29;20111;-46
2022/08/23 00:34:13;;;;;;;;;;;;;;;;;;4807402;29;20020;-48
2022/08/23 00:36:40;;;;;;;;;;;;;;;;;;4807080;29;20361;-46
2022/08/23 00:39:08;;;;;;;;;;;;;;;;;;4807049;29;20024;-46
2022/08/23 00:41:35;;;;;;;;;;;;;;;;;;4807043;29;19980;-52
2022/08/23 00:47:52;;;;;;;;;;;;;;;;;;4820665;29;20420;-45
2022/08/23 00:49:54;;;;;;;;;;;;;;;;;;4795311;29;19974;-46
2022/08/23 00:52:27;;;;;;;;;;;;;;;;;;4807110;29;19925;-45
2022/08/23 00:54:55;;;;;;;;;;;;;;;;;;4806940;29;19983;-47
2022/08/23 00:57:22;;;;;;;;;;;;;;;;;;4820727;29;20027;-45
2022/08/23 00:59:49;;;;;;;;;;;;;;;;;;4806518;29;19929;-49
2022/08/23 01:02:17;;;;;;;;;;;;;;;;;;4807049;29;19929;-46
2022/08/23 01:04:50;;;;;;;;;;;;;;;;;;4806683;29;19981;-48
2022/08/23 01:07:18;;;;;;;;;;;;;;;;;;4806601;29;19932;-44
2022/08/23 01:09:46;;;;;;;;;;;;;;;;;;4806618;29;20020;-47
2022/08/23 01:12:18;;;;;;;;;;;;;;;;;;4806604;29;19925;-46
2022/08/23 01:15:06;;;;;;;;;;;;;;;;;;4820516;29;19948;-47
2022/08/23 01:17:41;;;;;;;;;;;;;;;;;;4806578;29;20378;-45
2022/08/23 01:20:11;;;;;;;;;;;;;;;;;;4816863;29;20273;-45
2022/08/23 01:22:39;;;;;;;;;;;;;;;;;;4824334;29;20734;-45
2022/08/23 01:25:08;;;;;;;;;;;;;;;;;;4838403;29;20396;-49
2022/08/23 01:27:41;;;;;;;;;;;;;;;;;;4838305;29;19936;-45
2022/08/23 01:30:13;;;;;;;;;;;;;;;;;;4838525;29;19925;-49
2022/08/23 01:32:49;;;;;;;;;;;;;;;;;;4838209;29;19931;-45
2022/08/23 01:35:18;;;;;;;;;;;;;;;;;;4838256;29;20046;-46
2022/08/23 01:37:50;;;;;;;;;;;;;;;;;;4838139;29;19924;-48
2022/08/23 01:40:17;;;;;;;;;;;;;;;;;;4838446;29;19931;-49
2022/08/23 01:42:48;;;;;;;;;;;;;;;;;;4824004;29;20448;-44
2022/08/23 01:45:15;;;;;;;;;;;;;;;;;;4838260;29;19929;-47
2022/08/23 01:47:43;;;;;;;;;;;;;;;;;;4838253;29;19924;-45
2022/08/23 01:50:11;;;;;;;;;;;;;;;;;;4838197;29;19950;-44
2022/08/23 01:52:40;;;;;;;;;;;;;;;;;;4824085;29;20298;-45
2022/08/23 01:55:15;;;;;;;;;;;;;;;;;;4837971;29;19925;-46
2022/08/23 01:57:44;;;;;;;;;;;;;;;;;;4838085;29;19924;-44
2022/08/23 02:00:11;;;;;;;;;;;;;;;;;;4837769;29;19981;-45
2022/08/23 02:02:39;;;;;;;;;;;;;;;;;;4823901;29;19964;-44
2022/08/23 02:05:07;;;;;;;;;;;;;;;;;;4837744;29;20301;-45
2022/08/23 02:07:35;;;;;;;;;;;;;;;;;;4837832;29;19967;-45
2022/08/23 02:10:05;;;;;;;;;;;;;;;;;;4837788;29;19931;-47
2022/08/23 02:12:32;;;;;;;;;;;;;;;;;;4823450;29;19924;-47
2022/08/23 02:15:09;;;;;;;;;;;;;;;;;;4837825;29;19932;-46
2022/08/23 02:17:40;;;;;;;;;;;;;;;;;;4837554;29;20303;-44
2022/08/23 02:20:07;;;;;;;;;;;;;;;;;;4813529;29;19932;-46
2022/08/23 02:22:36;;;;;;;;;;;;;;;;;;4805286;29;19977;-43
2022/08/23 02:25:04;;;;;;;;;;;;;;;;;;4805339;29;20385;-45
2022/08/23 02:27:31;;;;;;;;;;;;;;;;;;4819609;29;20297;-44
2022/08/23 02:29:59;;;;;;;;;;;;;;;;;;4819477;29;19929;-46
2022/08/23 02:32:28;;;;;;;;;;;;;;;;;;4819230;29;19982;-43
2022/08/23 02:34:56;;;;;;;;;;;;;;;;;;4819480;29;19936;-46
2022/08/23 02:37:32;;;;;;;;;;;;;;;;;;4819077;29;19945;-45
2022/08/23 02:39:59;;;;;;;;;;;;;;;;;;4819343;29;20647;-43
2022/08/23 02:42:28;;;;;;;;;;;;;;;;;;4819142;29;19925;-43
2022/08/23 02:44:55;;;;;;;;;;;;;;;;;;4819318;29;20015;-45
2022/08/23 02:47:22;;;;;;;;;;;;;;;;;;4819326;29;20335;-43
2022/08/23 02:50:09;;;;;;;;;;;;;;;;;;4805027;29;19963;-44
2022/08/23 02:52:37;;;;;;;;;;;;;;;;;;4818860;29;19929;-44
2022/08/23 02:55:05;;;;;;;;;;;;;;;;;;4819149;29;19929;-44
2022/08/23 02:57:32;;;;;;;;;;;;;;;;;;4804973;29;19925;-43
2022/08/23 03:00:03;;;;;;;;;;;;;;;;;;4804064;29;20400;-44
2022/08/23 03:02:30;;;;;;;;;;;;;;;;;;4818587;29;19931;-43
2022/08/23 03:04:58;;;;;;;;;;;;;;;;;;4819229;29;20324;-45
2022/08/23 03:07:25;;;;;;;;;;;;;;;;;;4819804;29;20389;-43
2022/08/23 03:09:52;;;;;;;;;;;;;;;;;;4822708;29;20344;-45
2022/08/23 03:12:20;;;;;;;;;;;;;;;;;;4822569;29;20278;-46
2022/08/23 03:14:52;;;;;;;;;;;;;;;;;;4822232;29;20428;-43
2022/08/23 03:17:20;;;;;;;;;;;;;;;;;;4808691;29;20346;-47
2022/08/23 03:19:48;;;;;;;;;;;;;;;;;;4830091;29;19924;-47
2022/08/23 03:22:16;;;;;;;;;;;;;;;;;;4840629;29;19973;-45
2022/08/23 03:24:43;;;;;;;;;;;;;;;;;;4840257;29;19931;-43
2022/08/23 03:27:11;;;;;;;;;;;;;;;;;;4808326;29;19975;-46
2022/08/23 03:29:40;;;;;;;;;;;;;;;;;;4803756;29;19974;-44
2022/08/23 03:32:07;;;;;;;;;;;;;;;;;;4803934;29;19925;-44
2022/08/23 03:34:36;;;;;;;;;;;;;;;;;;4803874;29;19932;-47
2022/08/23 03:37:06;;;;;;;;;;;;;;;;;;4803953;29;19965;-43
2022/08/23 03:39:34;;;;;;;;;;;;;;;;;;4803989;29;19948;-46
2022/08/23 03:42:02;;;;;;;;;;;;;;;;;;4803770;29;20373;-45
2022/08/23 03:44:32;;;;;;;;;;;;;;;;;;4803532;29;19998;-44
2022/08/23 03:47:00;;;;;;;;;;;;;;;;;;4803974;29;20302;-45
2022/08/23 03:49:28;;;;;;;;;;;;;;;;;;4803831;29;19926;-45
2022/08/23 03:51:56;;;;;;;;;;;;;;;;;;4790280;29;20379;-46
2022/08/23 03:54:23;;;;;;;;;;;;;;;;;;4790175;29;19925;-44
2022/08/23 03:56:55;;;;;;;;;;;;;;;;;;4789515;29;20360;-44
2022/08/23 03:59:23;;;;;;;;;;;;;;;;;;4803670;29;19929;-48
2022/08/23 04:01:52;;;;;;;;;;;;;;;;;;4789568;29;19925;-48
2022/08/23 04:04:19;;;;;;;;;;;;;;;;;;4789795;29;19926;-46
2022/08/23 04:07:05;;;;;;;;;;;;;;;;;;4789316;30;19948;-49
2022/08/23 04:09:33;;;;;;;;;;;;;;;;;;4803523;29;19983;-46
2022/08/23 04:12:00;;;;;;;;;;;;;;;;;;4789668;29;19930;-43
2022/08/23 04:14:28;;;;;;;;;;;;;;;;;;4789593;29;20298;-44
2022/08/23 04:16:55;;;;;;;;;;;;;;;;;;4789741;29;19961;-49
2022/08/23 04:19:22;;;;;;;;;;;;;;;;;;4811400;29;19957;-45
2022/08/23 04:22:03;;;;;;;;;;;;;;;;;;4839543;29;19926;-45
2022/08/23 04:24:38;;;;;;;;;;;;;;;;;;4825265;29;20297;-44
2022/08/23 04:27:06;;;;;;;;;;;;;;;;;;4825507;29;19963;-45
2022/08/23 04:29:33;;;;;;;;;;;;;;;;;;4839495;29;19924;-46
2022/08/23 04:32:02;;;;;;;;;;;;;;;;;;4825306;29;19925;-44
2022/08/23 04:34:32;;;;;;;;;;;;;;;;;;4839477;29;20357;-44
2022/08/23 04:37:00;;;;;;;;;;;;;;;;;;4825400;29;19928;-45
2022/08/23 04:39:27;;;;;;;;;;;;;;;;;;4839319;29;19960;-44
2022/08/23 04:44:42;;;;;;;;;;;;;;;;;;4838951;29;19929;-44
2022/08/23 04:47:10;;;;;;;;;;;;;;;;;;4839440;29;20377;-46
2022/08/23 04:49:37;;;;;;;;;;;;;;;;;;4839180;29;19973;-46
2022/08/23 04:52:05;;;;;;;;;;;;;;;;;;4832156;29;19925;-47
2022/08/23 04:54:33;;;;;;;;;;;;;;;;;;4805412;29;19925;-48
2022/08/23 04:57:17;;;;;;;;;;;;;;;;;;4820321;29;19929;-45
2022/08/23 04:59:46;;;;;;;;;;;;;;;;;;4820034;29;20312;-45
2022/08/23 05:02:15;;;;;;;;;;;;;;;;;;4820650;29;19947;-45
2022/08/23 05:04:43;;;;;;;;;;;;;;;;;;4820487;29;20425;-44
2022/08/23 05:07:11;;;;;;;;;;;;;;;;;;4820675;29;20301;-44
2022/08/23 05:09:40;;;;;;;;;;;;;;;;;;4820165;29;19925;-45
2022/08/23 05:12:08;;;;;;;;;;;;;;;;;;4820457;29;19925;-46
2022/08/23 05:14:35;;;;;;;;;;;;;;;;;;4820128;29;20369;-46
2022/08/23 05:17:03;;;;;;;;;;;;;;;;;;4820668;29;19925;-46
2022/08/23 05:19:33;;;;;;;;;;;;;;;;;;4826123;29;19925;-45
2022/08/23 05:22:01;;;;;;;;;;;;;;;;;;4824405;29;19925;-46
2022/08/23 05:24:48;;;;;;;;;;;;;;;;;;4824041;29;19936;-47
2022/08/23 05:27:15;;;;;;;;;;;;;;;;;;4838554;29;19932;-46
2022/08/23 05:29:42;;;;;;;;;;;;;;;;;;4838079;29;19960;-45
2022/08/23 05:32:10;;;;;;;;;;;;;;;;;;4838105;29;19941;-47
2022/08/23 05:34:38;;;;;;;;;;;;;;;;;;4823091;29;19924;-44
2022/08/23 05:37:09;;;;;;;;;;;;;;;;;;4824464;29;19931;-47
2022/08/23 05:39:38;;;;;;;;;;;;;;;;;;4837883;29;19941;-44
2022/08/23 05:42:10;;;;;;;;;;;;;;;;;;4824448;29;19949;-47
2022/08/23 05:44:40;;;;;;;;;;;;;;;;;;4837880;29;19933;-45
2022/08/23 05:47:10;;;;;;;;;;;;;;;;;;4838013;29;20266;-45
2022/08/23 05:50:00;;;;;;;;;;;;;;;;;;4823706;29;20273;-44
2022/08/23 05:52:31;;;;;;;;;;;;;;;;;;4837983;29;20035;-46
2022/08/23 05:54:59;;;;;;;;;;;;;;;;;;4824036;29;19925;-44
2022/08/23 05:57:45;;;;;;;;;;;;;;;;;;4822979;29;19932;-45
2022/08/23 06:00:14;;;;;;;;;;;;;;;;;;4837805;29;20339;-45
2022/08/23 06:02:56;;;;;;;;;;;;;;;;;;4837685;29;19931;-47
2022/08/23 06:05:23;;;;;;;;;;;;;;;;;;4837805;29;19925;-48
2022/08/23 06:07:50;;;;;;;;;;;;;;;;;;4837963;29;20462;-44
2022/08/23 06:10:21;;;;;;;;;;;;;;;;;;4834737;29;20443;-44
2022/08/23 06:12:57;;;;;;;;;;;;;;;;;;4804552;29;19935;-44
2022/08/23 06:15:24;;;;;;;;;;;;;;;;;;4819876;29;19936;-44
2022/08/23 06:17:52;;;;;;;;;;;;;;;;;;4804324;29;19925;-44
2022/08/23 06:20:19;;;;;;;;;;;;;;;;;;4831025;29;19928;-44
2022/08/23 06:23:04;;;;;;;;;;;;;;;;;;4837463;29;19931;-47
2022/08/23 06:25:35;;;;;;;;;;;;;;;;;;4823602;29;19977;-45
2022/08/23 06:28:21;;;;;;;;;;;;;;;;;;4837377;29;19931;-45
2022/08/23 06:30:53;;;;;;;;;;;;;;;;;;4823256;29;20421;-47
2022/08/23 06:33:30;;;;;;;;;;;;;;;;;;4837294;29;19925;-46
2022/08/23 06:36:30;;;;;;;;;;;;;;;;;;4823014;29;20293;-44
2022/08/23 06:39:19;;;;;;;;;;;;;;;;;;4823269;29;19929;-46
2022/08/23 06:42:06;;;;;;;;;;;;;;;;;;4822898;29;19931;-46
2022/08/23 06:44:59;;;;;;;;;;;;;;;;;;4837001;29;19932;-45
2022/08/23 06:47:40;;;;;;;;;;;;;;;;;;4823234;29;20649;-44
2022/08/23 06:50:08;;;;;;;;;;;;;;;;;;4837124;29;19977;-45
2022/08/23 06:53:02;;;;;;;;;;;;;;;;;;4808395;29;19931;-46
2022/08/23 06:56:08;;;;;;;;;;;;;;;;;;4802899;29;20335;-44
2022/08/23 06:58:46;;;;;;;;;;;;;;;;;;4819983;29;20371;-45
2022/08/23 07:01:45;;;;;;;;;;;;;;;;;;4830284;29;19925;-46
2022/08/23 07:04:22;;;;;;;;;;;;;;;;;;4836881;29;19925;-46
2022/08/23 07:07:08;;;;;;;;;;;;;;;;;;4822974;29;19925;-44
2022/08/23 07:09:38;;;;;;;;;;;;;;;;;;4823371;29;20392;-45
2022/08/23 07:12:06;;;;;;;;;;;;;;;;;;4836985;29;19925;-45
2022/08/23 07:14:36;;;;;;;;;;;;;;;;;;4836811;29;20285;-47
2022/08/23 07:17:03;;;;;;;;;;;;;;;;;;4837134;29;20016;-45
2022/08/23 07:19:33;;;;;;;;;;;;;;;;;;4831296;29;19929;-46
2022/08/23 07:22:01;;;;;;;;;;;;;;;;;;4804595;29;19925;-47
2022/08/23 07:24:29;;;;;;;;;;;;;;;;;;4818461;29;19936;-47
2022/08/23 07:27:05;;;;;;;;;;;;;;;;;;4818573;29;20016;-46
2022/08/23 07:29:39;;;;;;;;;;;;;;;;;;4804409;29;20030;-45
2022/08/23 07:32:07;;;;;;;;;;;;;;;;;;4818655;29;19925;-47
2022/08/23 07:34:36;;;;;;;;;;;;;;;;;;4818293;29;19925;-48
2022/08/23 07:37:04;;;;;;;;;;;;;;;;;;4818367;29;19925;-49
2022/08/23 07:39:37;;;;;;;;;;;;;;;;;;4818248;29;20028;-47
2022/08/23 07:42:05;;;;;;;;;;;;;;;;;;4804802;29;19925;-47
2022/08/23 07:44:48;;;;;;;;;;;;;;;;;;4818234;29;19933;-50
2022/08/23 07:47:15;;;;;;;;;;;;;;;;;;4818519;29;19925;-44
2022/08/23 07:49:43;;;;;;;;;;;;;;;;;;4804463;29;20450;-47
2022/08/23 07:52:10;;;;;;;;;;;;;;;;;;4818343;29;19932;-46
2022/08/23 07:54:38;;;;;;;;;;;;;;;;;;4820304;29;19925;-47
2022/08/23 07:57:38;;;;;;;;;;;;;;;;;;4821349;29;19999;-49
2022/08/23 08:00:28;;;;;;;;;;;;;;;;;;4807177;29;20369;-45
2022/08/23 08:03:15;;;;;;;;;;;;;;;;;;4820841;29;20011;-44
2022/08/23 08:06:05;;;;;;;;;;;;;;;;;;4807884;29;19932;-46
2022/08/23 08:08:32;;;;;;;;;;;;;;;;;;4821248;29;19977;-45
2022/08/23 08:10:59;;;;;;;;;;;;;;;;;;4807439;29;20450;-50
2022/08/23 08:13:27;;;;;;;;;;;;;;;;;;4821600;29;19932;-46
2022/08/23 08:15:55;;;;;;;;;;;;;;;;;;4821553;29;19931;-49
2022/08/23 08:18:26;;;;;;;;;;;;;;;;;;4821534;29;20420;-49
2022/08/23 08:21:16;;;;;;;;;;;;;;;;;;4830893;29;20550;-48
2022/08/23 08:24:01;;;;;;;;;;;;;;;;;;4837456;29;19924;-46
2022/08/23 08:26:41;;;;;;;;;;;;;;;;;;4825086;29;20015;-47
2022/08/23 08:29:10;;;;;;;;;;;;;;;;;;4839468;29;19956;-47
2022/08/23 08:31:42;;;;;;;;;;;;;;;;;;4839210;29;19925;-48
2022/08/23 08:34:09;;;;;;;;;;;;;;;;;;4825208;29;19941;-48
2022/08/23 08:36:41;;;;;;;;;;;;;;;;;;4839364;29;19924;-48
2022/08/23 08:39:16;;;;;;;;;;;;;;;;;;4839141;29;19931;-45
2022/08/23 08:42:04;;;;;;;;;;;;;;;;;;4839171;29;19997;-48
2022/08/23 08:44:44;;;;;;;;;;;;;;;;;;4839071;29;19925;-44
2022/08/23 08:47:34;;;;;;;;;;;;;;;;;;4838945;29;19924;-47
2022/08/23 08:50:05;;;;;;;;;;;;;;;;;;4838964;29;19924;-48
2022/08/23 08:52:36;;;;;;;;;;;;;;;;;;4838667;29;19936;-49
2022/08/23 08:55:15;;;;;;;;;;;;;;;;;;4839024;29;20028;-48
2022/08/23 08:57:46;;;;;;;;;;;;;;;;;;4838624;29;19991;-48
2022/08/23 09:00:17;;;;;;;;;;;;;;;;;;4824647;29;19993;-45
2022/08/23 09:02:46;;;;;;;;;;;;;;;;;;4838619;29;19924;-47
2022/08/23 09:05:15;;;;;;;;;;;;;;;;;;4823877;29;19924;-45
2022/08/23 09:07:56;;;;;;;;;;;;;;;;;;4838782;29;19931;-49
2022/08/23 09:10:33;;;;;;;;;;;;;;;;;;4838489;29;19932;-44
2022/08/23 09:13:26;;;;;;;;;;;;;;;;;;4838764;29;20353;-47
2022/08/23 09:15:59;;;;;;;;;;;;;;;;;;4824641;29;20397;-46
2022/08/23 09:18:30;;;;;;;;;;;;;;;;;;4838757;29;20008;-44
2022/08/23 09:21:00;;;;;;;;;;;;;;;;;;4821498;29;19932;-45
2022/08/23 09:23:37;;;;;;;;;;;;;;;;;;4820379;29;19929;-47
2022/08/23 09:26:22;;;;;;;;;;;;;;;;;;4820178;29;19929;-45
2022/08/23 09:28:51;;;;;;;;;;;;;;;;;;4805753;29;19936;-46
2022/08/23 09:31:40;;;;;;;;;;;;;;;;;;4806089;29;19959;-43
2022/08/23 09:34:09;;;;;;;;;;;;;;;;;;4819914;29;19932;-46
2022/08/23 09:36:47;;;;;;;;;;;;;;;;;;4819522;29;19968;-46
2022/08/23 09:39:40;;;;;;;;;;;;;;;;;;4806148;29;20263;-44
2022/08/23 09:42:26;;;;;;;;;;;;;;;;;;4819739;29;20466;-49
2022/08/23 09:44:56;;;;;;;;;;;;;;;;;;4819519;29;19960;-47
2022/08/23 09:47:39;;;;;;;;;;;;;;;;;;4819923;29;20019;-47
2022/08/23 09:50:23;;;;;;;;;;;;;;;;;;4819957;29;19932;-47
2022/08/23 09:53:03;;;;;;;;;;;;;;;;;;4819513;29;20350;-47
2022/08/23 09:55:41;;;;;;;;;;;;;;;;;;4819887;29;19928;-50
2022/08/23 09:58:19;;;;;;;;;;;;;;;;;;4819616;29;20026;-48
2022/08/23 10:01:00;;;;;;;;;;;;;;;;;;4819397;29;20020;-45
2022/08/23 10:03:28;;;;;;;;;;;;;;;;;;4819319;29;19991;-44
2022/08/23 10:06:15;;;;;;;;;;;;;;;;;;4805543;29;19925;-44
2022/08/23 10:08:59;;;;;;;;;;;;;;;;;;4819496;29;19982;-44
2022/08/23 10:11:38;;;;;;;;;;;;;;;;;;4819887;29;19959;-45
2022/08/23 10:14:08;;;;;;;;;;;;;;;;;;4805565;29;20358;-45
2022/08/23 10:16:56;;;;;;;;;;;;;;;;;;4818715;29;19925;-43
2022/08/23 10:19:37;;;;;;;;;;;;;;;;;;4824105;29;20019;-44
2022/08/23 10:22:10;;;;;;;;;;;;;;;;;;4837471;29;19955;-45
2022/08/23 10:24:47;;;;;;;;;;;;;;;;;;4836820;29;19936;-47
2022/08/23 10:30:27;;;;;;;;;;;;;;;;;;4837377;29;19932;-48
2022/08/23 10:32:55;;;;;;;;;;;;;;;;;;4823705;29;19964;-45
2022/08/23 10:35:40;;;;;;;;;;;;;;;;;;4837550;29;19931;-49
2022/08/23 10:38:20;;;;;;;;;;;;;;;;;;4823567;29;19979;-46
2022/08/23 10:41:02;;;;;;;;;;;;;;;;;;4837180;29;20381;-41
2022/08/23 10:43:44;;;;;;;;;;;;;;;;;;4837315;29;20445;-45
2022/08/23 10:46:12;;;;;;;;;;;;;;;;;;4837218;29;19974;-44
2022/08/23 10:48:50;;;;;;;;;;;;;;;;;;4823331;29;19935;-45
2022/08/23 10:51:25;;;;;;;;;;;;;;;;;;4837213;29;19931;-46
2022/08/23 10:54:00;;;;;;;;;;;;;;;;;;4837084;29;19925;-46
2022/08/23 10:56:28;;;;;;;;;;;;;;;;;;4823516;29;20331;-47
2022/08/23 10:58:56;;;;;;;;;;;;;;;;;;4823389;29;19959;-45
2022/08/23 11:01:25;;;;;;;;;;;;;;;;;;4823468;29;19925;-47
2022/08/23 11:03:57;;;;;;;;;;;;;;;;;;4836882;29;20393;-46
2022/08/23 11:06:44;;;;;;;;;;;;;;;;;;4837231;29;20032;-46
2022/08/23 11:09:18;;;;;;;;;;;;;;;;;;4823223;29;19982;-49
2022/08/23 11:11:49;;;;;;;;;;;;;;;;;;4837051;29;20388;-47
2022/08/23 11:14:32;;;;;;;;;;;;;;;;;;4837154;29;19958;-48
2022/08/23 11:17:00;;;;;;;;;;;;;;;;;;4837296;29;19929;-47
2022/08/23 11:19:49;;;;;;;;;;;;;;;;;;4817870;29;19984;-45
2022/08/23 11:22:19;;;;;;;;;;;;;;;;;;4818814;29;19925;-48
2022/08/23 11:24:52;;;;;;;;;;;;;;;;;;4818199;29;19925;-48
2022/08/23 11:27:40;;;;;;;;;;;;;;;;;;4818792;29;19954;-48
2022/08/23 11:30:33;;;;;;;;;;;;;;;;;;4821638;29;19925;-48
2022/08/23 11:33:15;;;;;;;;;;;;;;;;;;4821899;29;20415;-44
2022/08/23 11:35:48;;;;;;;;;;;;;;;;;;4821765;29;19994;-46
2022/08/23 11:38:35;;;;;;;;;;;;;;;;;;4822140;29;19948;-45
2022/08/23 11:41:19;;;;;;;;;;;;;;;;;;4821846;29;20023;-46
2022/08/23 11:43:56;;;;;;;;;;;;;;;;;;4807867;29;20315;-45
2022/08/23 11:46:29;;;;;;;;;;;;;;;;;;4821699;29;20347;-45
2022/08/23 11:49:11;;;;;;;;;;;;;;;;;;4821645;29;19925;-46
2022/08/23 11:51:59;;;;;;;;;;;;;;;;;;4807650;29;20031;-44
2022/08/23 11:54:45;;;;;;;;;;;;;;;;;;4808073;29;19925;-46
2022/08/23 11:57:31;;;;;;;;;;;;;;;;;;4807676;29;19925;-47
2022/08/23 12:00:26;;;;;;;;;;;;;;;;;;4807850;29;19933;-44
2022/08/23 12:03:03;;;;;;;;;;;;;;;;;;4806663;29;19976;-44
2022/08/23 12:05:33;;;;;;;;;;;;;;;;;;4807889;29;20393;-44
2022/08/23 12:08:04;;;;;;;;;;;;;;;;;;4807722;29;19925;-44
2022/08/23 12:10:40;;;;;;;;;;;;;;;;;;4807400;29;19928;-44
2022/08/23 12:13:17;;;;;;;;;;;;;;;;;;4807678;29;19925;-46
2022/08/23 12:16:04;;;;;;;;;;;;;;;;;;4807670;29;19928;-44
2022/08/23 12:18:33;;;;;;;;;;;;;;;;;;4807159;29;20040;-43
2022/08/23 12:21:03;;;;;;;;;;;;;;;;;;4823911;29;19960;-44
2022/08/23 12:23:30;;;;;;;;;;;;;;;;;;4825663;29;19925;-43
2022/08/23 12:25:59;;;;;;;;;;;;;;;;;;4825488;29;20385;-45
2022/08/23 12:28:41;;;;;;;;;;;;;;;;;;4825691;29;19929;-42
2022/08/23 12:31:20;;;;;;;;;;;;;;;;;;4825293;29;19936;-44
2022/08/23 12:33:59;;;;;;;;;;;;;;;;;;4825461;29;20011;-45
2022/08/23 12:36:47;;;;;;;;;;;;;;;;;;4825643;29;19989;-46
2022/08/23 12:39:22;;;;;;;;;;;;;;;;;;4827830;29;19971;-45
2022/08/23 12:41:54;;;;;;;;;;;;;;;;;;4824247;29;19924;-46
2022/08/23 12:44:24;;;;;;;;;;;;;;;;;;4825209;29;19976;-46
2022/08/23 12:47:07;;;;;;;;;;;;;;;;;;4825115;29;19929;-48
2022/08/23 12:49:35;;;;;;;;;;;;;;;;;;4825171;29;19981;-47
2022/08/23 12:52:06;;;;;;;;;;;;;;;;;;4825248;29;19931;-45
2022/08/23 12:54:45;;;;;;;;;;;;;;;;;;4824989;29;19928;-46
2022/08/23 12:57:16;;;;;;;;;;;;;;;;;;4825067;29;19925;-44
2022/08/23 13:00:02;;;;;;;;;;;;;;;;;;4824693;29;19924;-44
2022/08/23 13:02:46;;;;;;;;;;;;;;;;;;4824649;29;19924;-46
2022/08/23 13:05:21;;;;;;;;;;;;;;;;;;4824787;29;19963;-44
2022/08/23 13:07:48;;;;;;;;;;;;;;;;;;4824879;29;19924;-45
2022/08/23 13:10:16;;;;;;;;;;;;;;;;;;4838467;29;20389;-43
2022/08/23 13:12:43;;;;;;;;;;;;;;;;;;4824190;29;19974;-44
2022/08/23 13:15:11;;;;;;;;;;;;;;;;;;4838473;29;19964;-45
2022/08/23 13:17:39;;;;;;;;;;;;;;;;;;4824544;29;19924;-45
2022/08/23 13:20:06;;;;;;;;;;;;;;;;;;4814265;29;19970;-44
2022/08/23 13:22:35;;;;;;;;;;;;;;;;;;4806269;29;20070;-45
2022/08/23 13:25:02;;;;;;;;;;;;;;;;;;4806114;29;19968;-45
2022/08/23 13:27:52;;;;;;;;;;;;;;;;;;4806079;29;20448;-44
2022/08/23 13:30:25;;;;;;;;;;;;;;;;;;4806350;29;19928;-44
2022/08/23 13:33:12;;;;;;;;;;;;;;;;;;4805863;29;20357;-45
2022/08/23 13:35:44;;;;;;;;;;;;;;;;;;4806065;29;19968;-47
2022/08/23 13:38:12;;;;;;;;;;;;;;;;;;4805926;29;20274;-46
2022/08/23 13:40:51;;;;;;;;;;;;;;;;;;4805763;29;19948;-44
2022/08/23 13:43:38;;;;;;;;;;;;;;;;;;4805772;29;19925;-45
2022/08/23 13:46:11;;;;;;;;;;;;;;;;;;4805901;29;19998;-45
2022/08/23 13:48:43;;;;;;;;;;;;;;;;;;4805522;29;19929;-44
2022/08/23 13:51:18;;;;;;;;;;;;;;;;;;4805505;29;19933;-46
2022/08/23 13:53:45;;;;;;;;;;;;;;;;;;4805554;29;19929;-45
2022/08/23 13:56:14;;;;;;;;;;;;;;;;;;4805630;29;19936;-45
2022/08/23 13:58:41;;;;;;;;;;;;;;;;;;4805580;29;19959;-44
2022/08/23 14:01:17;;;;;;;;;;;;;;;;;;4805572;29;20023;-46
2022/08/23 14:03:45;;;;;;;;;;;;;;;;;;4805230;29;19997;-46
2022/08/23 14:06:12;;;;;;;;;;;;;;;;;;4805686;29;19932;-44
2022/08/23 14:08:39;;;;;;;;;;;;;;;;;;4805542;29;19929;-46
2022/08/23 14:11:07;;;;;;;;;;;;;;;;;;4805352;29;20343;-46
2022/08/23 14:13:35;;;;;;;;;;;;;;;;;;4805512;29;19925;-44
2022/08/23 14:16:06;;;;;;;;;;;;;;;;;;4805374;29;19964;-46
2022/08/23 14:18:53;;;;;;;;;;;;;;;;;;4805931;29;19929;-47
2022/08/23 14:21:41;;;;;;;;;;;;;;;;;;4823297;29;19925;-44
2022/08/23 14:24:09;;;;;;;;;;;;;;;;;;4823238;29;19932;-44
2022/08/23 14:26:37;;;;;;;;;;;;;;;;;;4823447;29;19925;-44
2022/08/23 14:29:04;;;;;;;;;;;;;;;;;;4823700;29;20448;-44
2022/08/23 14:31:32;;;;;;;;;;;;;;;;;;4837266;29;19932;-45
2022/08/23 14:33:59;;;;;;;;;;;;;;;;;;4823885;29;20422;-46
2022/08/23 14:36:27;;;;;;;;;;;;;;;;;;4823724;29;20016;-44
2022/08/23 14:38:55;;;;;;;;;;;;;;;;;;4823553;29;20031;-44
2022/08/23 14:41:24;;;;;;;;;;;;;;;;;;4823445;29;19925;-44
2022/08/23 14:43:51;;;;;;;;;;;;;;;;;;4823660;29;19929;-45
2022/08/23 14:46:20;;;;;;;;;;;;;;;;;;4823559;29;19925;-45
2022/08/23 14:48:47;;;;;;;;;;;;;;;;;;4823100;29;19925;-44
2022/08/23 14:51:25;;;;;;;;;;;;;;;;;;4823637;29;19929;-44
2022/08/23 14:53:53;;;;;;;;;;;;;;;;;;4823407;29;20265;-44
2022/08/23 14:56:20;;;;;;;;;;;;;;;;;;4823471;29;19929;-46
2022/08/23 14:58:48;;;;;;;;;;;;;;;;;;4823048;29;19925;-46
2022/08/23 15:01:17;;;;;;;;;;;;;;;;;;4823214;29;19968;-48
2022/08/23 15:03:44;;;;;;;;;;;;;;;;;;4823934;29;19924;-46
2022/08/23 15:06:12;;;;;;;;;;;;;;;;;;4826635;29;20015;-44
2022/08/23 15:08:40;;;;;;;;;;;;;;;;;;4826585;29;20015;-46
2022/08/23 15:11:08;;;;;;;;;;;;;;;;;;4826770;29;19992;-43
2022/08/23 15:13:55;;;;;;;;;;;;;;;;;;4826380;29;19925;-44
2022/08/23 15:16:28;;;;;;;;;;;;;;;;;;4826491;29;19933;-44
2022/08/23 15:18:56;;;;;;;;;;;;;;;;;;4825036;29;19932;-42
2022/08/23 15:21:23;;;;;;;;;;;;;;;;;;4808366;29;19981;-45
2022/08/23 15:23:50;;;;;;;;;;;;;;;;;;4808144;29;19929;-47
2022/08/23 15:26:22;;;;;;;;;;;;;;;;;;4808332;29;19932;-47
2022/08/23 15:28:50;;;;;;;;;;;;;;;;;;4808196;29;20390;-46
2022/08/23 15:31:18;;;;;;;;;;;;;;;;;;4808521;29;19960;-45
2022/08/23 15:33:45;;;;;;;;;;;;;;;;;;4808362;29;19997;-44
2022/08/23 15:36:13;;;;;;;;;;;;;;;;;;4808262;29;19951;-46
2022/08/23 15:38:41;;;;;;;;;;;;;;;;;;4807998;29;19929;-47
2022/08/23 15:41:08;;;;;;;;;;;;;;;;;;4807815;29;20020;-44
2022/08/23 15:43:38;;;;;;;;;;;;;;;;;;4808083;29;19925;-46
2022/08/23 15:46:07;;;;;;;;;;;;;;;;;;4807638;29;19925;-44
2022/08/23 15:48:47;;;;;;;;;;;;;;;;;;4807926;29;19925;-43
2022/08/23 15:51:16;;;;;;;;;;;;;;;;;;4807957;29;19925;-43
2022/08/23 15:53:43;;;;;;;;;;;;;;;;;;4821234;29;19925;-45
2022/08/23 15:56:18;;;;;;;;;;;;;;;;;;4807845;29;19935;-44
2022/08/23 15:58:45;;;;;;;;;;;;;;;;;;4807549;29;19971;-43
2022/08/23 16:01:13;;;;;;;;;;;;;;;;;;4807725;29;20301;-46
2022/08/23 16:03:43;;;;;;;;;;;;;;;;;;4807499;29;20358;-43
2022/08/23 16:06:11;;;;;;;;;;;;;;;;;;4807596;29;19928;-43
2022/08/23 16:08:40;;;;;;;;;;;;;;;;;;4807547;29;20385;-42
2022/08/23 16:11:11;;;;;;;;;;;;;;;;;;4807791;29;20304;-44
2022/08/23 16:13:41;;;;;;;;;;;;;;;;;;4807535;29;19932;-43
2022/08/23 16:16:17;;;;;;;;;;;;;;;;;;4807390;29;20389;-45
2022/08/23 16:18:45;;;;;;;;;;;;;;;;;;4807403;29;19990;-46
2022/08/23 16:21:12;;;;;;;;;;;;;;;;;;4807618;29;19932;-43
2022/08/23 16:23:41;;;;;;;;;;;;;;;;;;4807322;29;19978;-43
2022/08/23 16:26:10;;;;;;;;;;;;;;;;;;4807433;29;19970;-44
2022/08/23 16:28:38;;;;;;;;;;;;;;;;;;4807145;29;19925;-44
2022/08/23 16:31:05;;;;;;;;;;;;;;;;;;4807080;29;20412;-42
2022/08/23 16:33:32;;;;;;;;;;;;;;;;;;4807053;29;19925;-44
2022/08/23 16:35:59;;;;;;;;;;;;;;;;;;4807532;29;19928;-43
2022/08/23 16:38:27;;;;;;;;;;;;;;;;;;4807573;29;20011;-44
2022/08/23 16:40:55;;;;;;;;;;;;;;;;;;4806952;29;19928;-44
2022/08/23 16:43:22;;;;;;;;;;;;;;;;;;4807187;29;20008;-45
2022/08/23 16:45:49;;;;;;;;;;;;;;;;;;4806543;29;19928;-46
2022/08/23 16:48:17;;;;;;;;;;;;;;;;;;4820873;29;19967;-45
2022/08/23 16:50:45;;;;;;;;;;;;;;;;;;4806856;29;19932;-44
2022/08/23 16:53:12;;;;;;;;;;;;;;;;;;4806920;29;19925;-46
2022/08/23 16:55:40;;;;;;;;;;;;;;;;;;4820718;29;20416;-46
2022/08/23 16:58:08;;;;;;;;;;;;;;;;;;4806668;29;19925;-44
2022/08/23 17:00:35;;;;;;;;;;;;;;;;;;4806894;29;20313;-43
2022/08/23 17:03:03;;;;;;;;;;;;;;;;;;4806260;29;20013;-46
2022/08/23 17:05:31;;;;;;;;;;;;;;;;;;4806668;29;19983;-43
2022/08/23 17:07:58;;;;;;;;;;;;;;;;;;4806721;29;20384;-46
2022/08/23 17:10:26;;;;;;;;;;;;;;;;;;4806297;29;20024;-42
2022/08/23 17:12:56;;;;;;;;;;;;;;;;;;4805339;29;19925;-43
2022/08/23 17:15:31;;;;;;;;;;;;;;;;;;4806755;29;19925;-42
2022/08/23 17:17:59;;;;;;;;;;;;;;;;;;4806358;29;19925;-44
2022/08/23 17:20:28;;;;;;;;;;;;;;;;;;4818942;29;19932;-43
2022/08/23 17:22:56;;;;;;;;;;;;;;;;;;4824386;29;19933;-44
2022/08/23 17:25:24;;;;;;;;;;;;;;;;;;4824477;29;19990;-43
2022/08/23 17:27:52;;;;;;;;;;;;;;;;;;4824089;29;19936;-43
2022/08/23 17:30:22;;;;;;;;;;;;;;;;;;4824424;29;19925;-44
2022/08/23 17:32:49;;;;;;;;;;;;;;;;;;4824329;29;19950;-43